sensor_id;sensor_type;location;lat;lon;timestamp;pressure;altitude;pressure_sealevel;temperature;humidity
78667;BME280;67983;59.830;30.198;2023-04-06T00:00:22;102720.59;;;6.78;61.04
78667;BME280;67983;59.830;30.198;2023-04-06T00:02:52;102724.94;;;6.81;60.89
78667;BME280;67983;59.830;30.198;2023-04-06T00:05:19;102728.44;;;6.81;60.75
78667;BME280;67983;59.830;30.198;2023-04-06T00:07:49;102716.16;;;6.80;60.83
78667;BME280;67983;59.830;30.198;2023-04-06T00:10:16;102717.88;;;6.83;60.96
78667;BME280;67983;59.830;30.198;2023-04-06T00:12:44;102709.88;;;6.86;60.84
78667;BME280;67983;59.830;30.198;2023-04-06T00:15:11;102717.78;;;6.87;60.76
78667;BME280;67983;59.830;30.198;2023-04-06T00:17:42;102717.78;;;6.87;61.07
78667;BME280;67983;59.830;30.198;2023-04-06T00:20:10;102713.41;;;6.86;60.80
78667;BME280;67983;59.830;30.198;2023-04-06T00:22:37;102714.25;;;6.87;61.33
78667;BME280;67983;59.830;30.198;2023-04-06T00:25:11;102715.16;;;6.86;60.82
78667;BME280;67983;59.830;30.198;2023-04-06T00:27:41;102716.94;;;6.85;60.79
78667;BME280;67983;59.830;30.198;2023-04-06T00:30:09;102709.84;;;6.87;60.99
78667;BME280;67983;59.830;30.198;2023-04-06T00:32:37;102716.00;;;6.88;60.86
78667;BME280;67983;59.830;30.198;2023-04-06T00:35:04;102711.66;;;6.85;60.97
78667;BME280;67983;59.830;30.198;2023-04-06T00:37:32;102711.72;;;6.82;60.88
78667;BME280;67983;59.830;30.198;2023-04-06T00:39:59;102702.09;;;6.80;60.92
78667;BME280;67983;59.830;30.198;2023-04-06T00:42:29;102716.16;;;6.80;60.86
78667;BME280;67983;59.830;30.198;2023-04-06T00:45:22;102715.28;;;6.80;61.35
78667;BME280;67983;59.830;30.198;2023-04-06T00:47:49;102711.00;;;6.74;61.46
78667;BME280;67983;59.830;30.198;2023-04-06T00:50:16;102710.13;;;6.72;61.23
78667;BME280;67983;59.830;30.198;2023-04-06T00:52:43;102710.25;;;6.66;61.49
78667;BME280;67983;59.830;30.198;2023-04-06T00:55:18;102725.25;;;6.64;61.68
78667;BME280;67983;59.830;30.198;2023-04-06T00:57:46;102727.00;;;6.64;61.59
78667;BME280;67983;59.830;30.198;2023-04-06T01:00:16;102716.41;;;6.67;61.58
78667;BME280;67983;59.830;30.198;2023-04-06T01:03:12;102713.78;;;6.65;61.64
78667;BME280;67983;59.830;30.198;2023-04-06T01:05:42;102718.25;;;6.62;61.67
78667;BME280;67983;59.830;30.198;2023-04-06T01:08:23;102717.44;;;6.59;61.78
78667;BME280;67983;59.830;30.198;2023-04-06T01:10:56;102720.97;;;6.57;61.42
78667;BME280;67983;59.830;30.198;2023-04-06T01:13:28;102714.84;;;6.55;61.26
78667;BME280;67983;59.830;30.198;2023-04-06T01:16:04;102720.13;;;6.55;61.73
78667;BME280;67983;59.830;30.198;2023-04-06T01:18:45;102716.59;;;6.56;61.77
78667;BME280;67983;59.830;30.198;2023-04-06T01:21:20;102718.28;;;6.60;61.80
78667;BME280;67983;59.830;30.198;2023-04-06T01:24:09;102732.25;;;6.65;61.29
78667;BME280;67983;59.830;30.198;2023-04-06T01:26:56;102724.38;;;6.64;61.21
78667;BME280;67983;59.830;30.198;2023-04-06T01:29:28;102721.78;;;6.62;61.54
78667;BME280;67983;59.830;30.198;2023-04-06T01:31:58;102726.19;;;6.58;61.71
78667;BME280;67983;59.830;30.198;2023-04-06T01:34:25;102729.84;;;6.53;61.49
78667;BME280;67983;59.830;30.198;2023-04-06T01:36:59;102727.25;;;6.50;61.87
78667;BME280;67983;59.830;30.198;2023-04-06T01:39:55;102725.47;;;6.50;61.45
78667;BME280;67983;59.830;30.198;2023-04-06T01:42:36;102729.94;;;6.47;61.98
78667;BME280;67983;59.830;30.198;2023-04-06T01:45:07;102727.38;;;6.42;61.75
78667;BME280;67983;59.830;30.198;2023-04-06T01:47:34;102725.66;;;6.40;61.90
78667;BME280;67983;59.830;30.198;2023-04-06T01:50:03;102729.19;;;6.39;62.17
78667;BME280;67983;59.830;30.198;2023-04-06T01:53:00;102731.88;;;6.36;62.40
78667;BME280;67983;59.830;30.198;2023-04-06T01:55:30;102725.78;;;6.32;62.32
78667;BME280;67983;59.830;30.198;2023-04-06T01:58:16;102734.63;;;6.29;62.06
78667;BME280;67983;59.830;30.198;2023-04-06T02:00:44;102739.94;;;6.28;61.92
78667;BME280;67983;59.830;30.198;2023-04-06T02:03:12;102725.88;;;6.26;62.41
78667;BME280;67983;59.830;30.198;2023-04-06T02:05:40;102730.34;;;6.21;62.23
78667;BME280;67983;59.830;30.198;2023-04-06T02:08:18;102725.97;;;6.20;62.61
78667;BME280;67983;59.830;30.198;2023-04-06T02:10:48;102733.88;;;6.20;62.22
78667;BME280;67983;59.830;30.198;2023-04-06T02:13:26;102735.66;;;6.19;62.58
78667;BME280;67983;59.830;30.198;2023-04-06T02:15:56;102734.75;;;6.20;62.42
78667;BME280;67983;59.830;30.198;2023-04-06T02:18:23;102734.78;;;6.19;62.56
78667;BME280;67983;59.830;30.198;2023-04-06T02:20:53;102734.81;;;6.17;62.80
78667;BME280;67983;59.830;30.198;2023-04-06T02:23:21;102733.91;;;6.18;62.58
78667;BME280;67983;59.830;30.198;2023-04-06T02:25:49;102747.09;;;6.18;62.69
78667;BME280;67983;59.830;30.198;2023-04-06T02:28:16;102743.56;;;6.19;62.81
78667;BME280;67983;59.830;30.198;2023-04-06T02:30:44;102745.28;;;6.22;62.57
78667;BME280;67983;59.830;30.198;2023-04-06T02:33:12;102749.69;;;6.21;62.75
78667;BME280;67983;59.830;30.198;2023-04-06T02:35:43;102752.28;;;6.23;62.51
78667;BME280;67983;59.830;30.198;2023-04-06T02:38:13;102751.38;;;6.24;62.59
78667;BME280;67983;59.830;30.198;2023-04-06T02:40:40;102752.22;;;6.26;62.27
78667;BME280;67983;59.830;30.198;2023-04-06T02:43:27;102755.75;;;6.26;61.96
78667;BME280;67983;59.830;30.198;2023-04-06T02:46:03;102759.28;;;6.25;62.08
78667;BME280;67983;59.830;30.198;2023-04-06T02:48:37;102758.38;;;6.28;62.12
78667;BME280;67983;59.830;30.198;2023-04-06T02:51:04;102761.84;;;6.30;61.85
78667;BME280;67983;59.830;30.198;2023-04-06T02:53:34;102762.75;;;6.27;62.21
78667;BME280;67983;59.830;30.198;2023-04-06T02:56:01;102752.22;;;6.29;62.03
78667;BME280;67983;59.830;30.198;2023-04-06T02:58:49;102755.69;;;6.31;62.29
78667;BME280;67983;59.830;30.198;2023-04-06T03:01:22;102756.59;;;6.30;61.98
78667;BME280;67983;59.830;30.198;2023-04-06T03:03:55;102767.16;;;6.28;62.47
78667;BME280;67983;59.830;30.198;2023-04-06T03:06:49;102759.25;;;6.28;62.26
78667;BME280;67983;59.830;30.198;2023-04-06T03:09:26;102763.53;;;6.36;62.09
78667;BME280;67983;59.830;30.198;2023-04-06T03:11:53;102760.81;;;6.39;62.01
78667;BME280;67983;59.830;30.198;2023-04-06T03:14:22;102768.75;;;6.39;61.68
78667;BME280;67983;59.830;30.198;2023-04-06T03:16:51;102765.22;;;6.38;61.91
78667;BME280;67983;59.830;30.198;2023-04-06T03:19:21;102767.91;;;6.35;62.00
78667;BME280;67983;59.830;30.198;2023-04-06T03:21:52;102771.47;;;6.34;62.45
78667;BME280;67983;59.830;30.198;2023-04-06T03:24:22;102769.66;;;6.36;62.06
78667;BME280;67983;59.830;30.198;2023-04-06T03:27:02;102773.13;;;6.38;62.32
78667;BME280;67983;59.830;30.198;2023-04-06T03:29:33;102774.88;;;6.39;61.96
78667;BME280;67983;59.830;30.198;2023-04-06T03:32:00;102775.72;;;6.41;62.34
78667;BME280;67983;59.830;30.198;2023-04-06T03:34:37;102769.56;;;6.42;62.11
78667;BME280;67983;59.830;30.198;2023-04-06T03:37:05;102771.31;;;6.42;62.23
78667;BME280;67983;59.830;30.198;2023-04-06T03:39:33;102767.88;;;6.38;62.13
78667;BME280;67983;59.830;30.198;2023-04-06T03:42:02;102765.34;;;6.32;61.94
78667;BME280;67983;59.830;30.198;2023-04-06T03:44:35;102768.75;;;6.37;61.98
78667;BME280;67983;59.830;30.198;2023-04-06T03:47:05;102775.88;;;6.32;62.35
78667;BME280;67983;59.830;30.198;2023-04-06T03:49:32;102777.56;;;6.36;62.42
78667;BME280;67983;59.830;30.198;2023-04-06T03:52:00;102781.03;;;6.40;61.94
78667;BME280;67983;59.830;30.198;2023-04-06T03:54:30;102780.97;;;6.43;62.33
78667;BME280;67983;59.830;30.198;2023-04-06T03:57:00;102779.22;;;6.42;62.19
78667;BME280;67983;59.830;30.198;2023-04-06T03:59:27;102794.97;;;6.48;62.15
78667;BME280;67983;59.830;30.198;2023-04-06T04:01:55;102788.78;;;6.50;62.21
78667;BME280;67983;59.830;30.198;2023-04-06T04:04:22;102789.59;;;6.54;61.76
78667;BME280;67983;59.830;30.198;2023-04-06T04:06:51;102798.31;;;6.59;61.42
78667;BME280;67983;59.830;30.198;2023-04-06T04:09:19;102793.91;;;6.59;61.94
78667;BME280;67983;59.830;30.198;2023-04-06T04:11:46;102804.44;;;6.61;61.53
78667;BME280;67983;59.830;30.198;2023-04-06T04:14:13;102799.16;;;6.61;61.43
78667;BME280;67983;59.830;30.198;2023-04-06T04:16:40;102800.94;;;6.61;61.38
78667;BME280;67983;59.830;30.198;2023-04-06T04:19:09;102799.13;;;6.63;61.78
78667;BME280;67983;59.830;30.198;2023-04-06T04:21:42;102807.97;;;6.60;61.23
78667;BME280;67983;59.830;30.198;2023-04-06T04:24:11;102810.63;;;6.60;61.40
78667;BME280;67983;59.830;30.198;2023-04-06T04:26:38;102810.53;;;6.65;61.47
78667;BME280;67983;59.830;30.198;2023-04-06T04:29:07;102809.56;;;6.69;60.98
78667;BME280;67983;59.830;30.198;2023-04-06T04:31:36;102811.25;;;6.74;61.26
78667;BME280;67983;59.830;30.198;2023-04-06T04:34:13;102812.13;;;6.73;61.15
78667;BME280;67983;59.830;30.198;2023-04-06T04:36:40;102806.88;;;6.72;60.84
78667;BME280;67983;59.830;30.198;2023-04-06T04:39:11;102809.50;;;6.73;61.01
78667;BME280;67983;59.830;30.198;2023-04-06T04:41:42;102803.31;;;6.76;61.29
78667;BME280;67983;59.830;30.198;2023-04-06T04:44:11;102811.09;;;6.83;60.82
78667;BME280;67983;59.830;30.198;2023-04-06T04:47:03;102812.81;;;6.86;60.99
78667;BME280;67983;59.830;30.198;2023-04-06T04:49:41;102814.53;;;6.87;61.06
78667;BME280;67983;59.830;30.198;2023-04-06T04:52:09;102815.47;;;6.84;61.20
78667;BME280;67983;59.830;30.198;2023-04-06T04:54:47;102813.72;;;6.83;60.65
78667;BME280;67983;59.830;30.198;2023-04-06T04:57:22;102811.03;;;6.86;60.83
78667;BME280;67983;59.830;30.198;2023-04-06T04:59:49;102810.19;;;6.84;60.35
78667;BME280;67983;59.830;30.198;2023-04-06T05:02:18;102810.09;;;6.91;60.67
78667;BME280;67983;59.830;30.198;2023-04-06T05:05:08;102819.78;;;6.90;60.52
78667;BME280;67983;59.830;30.198;2023-04-06T05:07:36;102811.91;;;6.87;60.80
78667;BME280;67983;59.830;30.198;2023-04-06T05:10:05;102822.44;;;6.88;60.53
78667;BME280;67983;59.830;30.198;2023-04-06T05:12:37;102813.66;;;6.86;60.50
78667;BME280;67983;59.830;30.198;2023-04-06T05:15:07;102815.50;;;6.83;60.65
78667;BME280;67983;59.830;30.198;2023-04-06T05:17:35;102821.66;;;6.83;60.57
78667;BME280;67983;59.830;30.198;2023-04-06T05:20:03;102817.25;;;6.84;60.93
78667;BME280;67983;59.830;30.198;2023-04-06T05:22:37;102811.97;;;6.84;61.10
78667;BME280;67983;59.830;30.198;2023-04-06T05:25:09;102812.75;;;6.89;60.43
78667;BME280;67983;59.830;30.198;2023-04-06T05:27:41;102819.78;;;6.88;60.78
78667;BME280;67983;59.830;30.198;2023-04-06T05:30:21;102818.03;;;6.87;60.78
78667;BME280;67983;59.830;30.198;2023-04-06T05:32:49;102815.38;;;6.89;60.76
78667;BME280;67983;59.830;30.198;2023-04-06T05:35:18;102822.44;;;6.90;60.88
78667;BME280;67983;59.830;30.198;2023-04-06T05:37:54;102828.56;;;6.91;60.81
78667;BME280;67983;59.830;30.198;2023-04-06T05:40:25;102818.06;;;6.86;60.57
78667;BME280;67983;59.830;30.198;2023-04-06T05:42:52;102810.19;;;6.84;61.02
78667;BME280;67983;59.830;30.198;2023-04-06T05:45:20;102820.69;;;6.87;61.04
78667;BME280;67983;59.830;30.198;2023-04-06T05:47:51;102823.31;;;6.87;60.65
78667;BME280;67983;59.830;30.198;2023-04-06T05:50:23;102823.28;;;6.89;60.64
78667;BME280;67983;59.830;30.198;2023-04-06T05:52:53;102827.72;;;6.90;60.88
78667;BME280;67983;59.830;30.198;2023-04-06T05:55:22;102826.00;;;6.86;60.40
78667;BME280;67983;59.830;30.198;2023-04-06T05:57:58;102828.69;;;6.83;60.82
78667;BME280;67983;59.830;30.198;2023-04-06T06:00:25;102826.88;;;6.86;60.59
78667;BME280;67983;59.830;30.198;2023-04-06T06:03:01;102828.56;;;6.91;60.81
78667;BME280;67983;59.830;30.198;2023-04-06T06:05:31;102835.53;;;6.95;60.73
78667;BME280;67983;59.830;30.198;2023-04-06T06:08:05;102835.41;;;7.01;60.15
78667;BME280;67983;59.830;30.198;2023-04-06T06:10:38;102830.94;;;7.06;60.23
78667;BME280;67983;59.830;30.198;2023-04-06T06:13:10;102836.16;;;7.09;60.46
78667;BME280;67983;59.830;30.198;2023-04-06T06:15:38;102844.91;;;7.12;60.16
78667;BME280;67983;59.830;30.198;2023-04-06T06:18:05;102844.00;;;7.13;59.95
78667;BME280;67983;59.830;30.198;2023-04-06T06:20:32;102845.81;;;7.11;59.67
78667;BME280;67983;59.830;30.198;2023-04-06T06:23:02;102845.03;;;7.06;59.97
78667;BME280;67983;59.830;30.198;2023-04-06T06:25:32;102841.47;;;7.07;59.97
78667;BME280;67983;59.830;30.198;2023-04-06T06:28:00;102843.09;;;7.14;59.73
78667;BME280;67983;59.830;30.198;2023-04-06T06:30:29;102838.69;;;7.15;59.50
78667;BME280;67983;59.830;30.198;2023-04-06T06:33:00;102849.22;;;7.16;59.83
78667;BME280;67983;59.830;30.198;2023-04-06T06:35:29;102849.28;;;7.13;59.68
78667;BME280;67983;59.830;30.198;2023-04-06T06:38:00;102843.97;;;7.15;59.88
78667;BME280;67983;59.830;30.198;2023-04-06T06:40:27;102844.88;;;7.14;59.53
78667;BME280;67983;59.830;30.198;2023-04-06T06:42:56;102848.41;;;7.13;59.29
78667;BME280;67983;59.830;30.198;2023-04-06T06:45:44;102851.91;;;7.13;59.61
78667;BME280;67983;59.830;30.198;2023-04-06T06:48:17;102851.84;;;7.16;59.84
78667;BME280;67983;59.830;30.198;2023-04-06T06:50:44;102858.81;;;7.22;59.36
78667;BME280;67983;59.830;30.198;2023-04-06T06:53:13;102866.69;;;7.25;59.53
78667;BME280;67983;59.830;30.198;2023-04-06T06:55:40;102851.75;;;7.24;59.04
78667;BME280;67983;59.830;30.198;2023-04-06T06:58:11;102853.50;;;7.24;59.16
78667;BME280;67983;59.830;30.198;2023-04-06T07:00:38;102857.94;;;7.22;59.15
78667;BME280;67983;59.830;30.198;2023-04-06T07:03:08;102860.66;;;7.17;59.30
78667;BME280;67983;59.830;30.198;2023-04-06T07:05:37;102859.88;;;7.12;59.14
78667;BME280;67983;59.830;30.198;2023-04-06T07:08:05;102866.03;;;7.12;59.63
78667;BME280;67983;59.830;30.198;2023-04-06T07:10:31;102864.22;;;7.14;59.18
78667;BME280;67983;59.830;30.198;2023-04-06T07:12:58;102862.38;;;7.19;59.77
78667;BME280;67983;59.830;30.198;2023-04-06T07:15:28;102860.59;;;7.22;59.08
78667;BME280;67983;59.830;30.198;2023-04-06T07:17:57;102863.25;;;7.20;59.16
78667;BME280;67983;59.830;30.198;2023-04-06T07:20:25;102866.78;;;7.21;59.50
78667;BME280;67983;59.830;30.198;2023-04-06T07:22:53;102860.63;;;7.18;59.03
78667;BME280;67983;59.830;30.198;2023-04-06T07:25:22;102872.06;;;7.19;59.45
78667;BME280;67983;59.830;30.198;2023-04-06T07:27:49;102868.56;;;7.17;59.11
78667;BME280;67983;59.830;30.198;2023-04-06T07:30:17;102871.19;;;7.18;59.28
78667;BME280;67983;59.830;30.198;2023-04-06T07:32:56;102872.91;;;7.23;59.36
78667;BME280;67983;59.830;30.198;2023-04-06T07:35:26;102874.47;;;7.31;58.95
78667;BME280;67983;59.830;30.198;2023-04-06T07:37:54;102874.31;;;7.40;58.88
78667;BME280;67983;59.830;30.198;2023-04-06T07:40:45;102872.38;;;7.50;58.82
78667;BME280;67983;59.830;30.198;2023-04-06T07:43:21;102870.41;;;7.61;59.01
78667;BME280;67983;59.830;30.198;2023-04-06T07:45:49;102874.69;;;7.68;58.32
78667;BME280;67983;59.830;30.198;2023-04-06T07:48:18;102869.25;;;7.74;58.56
78667;BME280;67983;59.830;30.198;2023-04-06T07:50:45;102879.66;;;7.84;58.22
78667;BME280;67983;59.830;30.198;2023-04-06T07:53:14;102876.78;;;7.94;58.18
78667;BME280;67983;59.830;30.198;2023-04-06T07:55:43;102877.59;;;7.99;57.43
78667;BME280;67983;59.830;30.198;2023-04-06T07:58:10;102877.41;;;8.07;57.69
78667;BME280;67983;59.830;30.198;2023-04-06T08:00:37;102886.88;;;8.19;57.39
78667;BME280;67983;59.830;30.198;2023-04-06T08:03:04;102892.84;;;8.27;57.07
78667;BME280;67983;59.830;30.198;2023-04-06T08:05:33;102884.78;;;8.33;56.64
78667;BME280;67983;59.830;30.198;2023-04-06T08:08:00;102892.66;;;8.37;56.41
78667;BME280;67983;59.830;30.198;2023-04-06T08:10:30;102889.88;;;8.42;56.22
78667;BME280;67983;59.830;30.198;2023-04-06T08:13:03;102889.75;;;8.50;56.32
78667;BME280;67983;59.830;30.198;2023-04-06T08:15:30;102898.47;;;8.53;55.96
78667;BME280;67983;59.830;30.198;2023-04-06T08:17:58;102896.66;;;8.55;56.18
78667;BME280;67983;59.830;30.198;2023-04-06T08:20:25;102900.13;;;8.59;55.95
78667;BME280;67983;59.830;30.198;2023-04-06T08:22:54;102885.94;;;8.61;55.56
78667;BME280;67983;59.830;30.198;2023-04-06T08:25:21;102901.59;;;8.71;55.57
78667;BME280;67983;59.830;30.198;2023-04-06T08:27:49;102894.47;;;8.74;55.22
78667;BME280;67983;59.830;30.198;2023-04-06T08:30:44;102897.84;;;8.81;55.42
78667;BME280;67983;59.830;30.198;2023-04-06T08:33:12;102898.59;;;8.86;55.19
78667;BME280;67983;59.830;30.198;2023-04-06T08:35:39;102905.56;;;8.90;55.04
78667;BME280;67983;59.830;30.198;2023-04-06T08:38:07;102901.19;;;8.89;54.83
78667;BME280;67983;59.830;30.198;2023-04-06T08:40:36;102902.09;;;8.86;55.09
78667;BME280;67983;59.830;30.198;2023-04-06T08:43:06;102905.69;;;8.84;54.88
78667;BME280;67983;59.830;30.198;2023-04-06T08:45:40;102899.47;;;8.86;54.67
78667;BME280;67983;59.830;30.198;2023-04-06T08:48:08;102904.72;;;8.88;54.55
78667;BME280;67983;59.830;30.198;2023-04-06T08:50:36;102908.31;;;8.85;54.41
78667;BME280;67983;59.830;30.198;2023-04-06T08:53:07;102902.97;;;8.87;54.49
78667;BME280;67983;59.830;30.198;2023-04-06T08:55:35;102904.66;;;8.91;54.44
78667;BME280;67983;59.830;30.198;2023-04-06T08:58:03;102903.56;;;8.99;54.51
78667;BME280;67983;59.830;30.198;2023-04-06T09:00:32;102906.03;;;9.07;54.30
78667;BME280;67983;59.830;30.198;2023-04-06T09:02:59;102914.56;;;9.18;54.26
78667;BME280;67983;59.830;30.198;2023-04-06T09:05:26;102909.91;;;9.28;53.69
78667;BME280;67983;59.830;30.198;2023-04-06T09:07:53;102904.53;;;9.31;54.00
78667;BME280;67983;59.830;30.198;2023-04-06T09:10:25;102910.94;;;9.22;54.18
78667;BME280;67983;59.830;30.198;2023-04-06T09:13:03;102914.28;;;9.29;53.93
78667;BME280;67983;59.830;30.198;2023-04-06T09:15:31;102905.34;;;9.35;53.49
78667;BME280;67983;59.830;30.198;2023-04-06T09:18:01;102906.84;;;9.43;52.94
78667;BME280;67983;59.830;30.198;2023-04-06T09:20:29;102912.16;;;9.43;53.01
78667;BME280;67983;59.830;30.198;2023-04-06T09:22:58;102904.06;;;9.48;52.54
78667;BME280;67983;59.830;30.198;2023-04-06T09:25:27;102903.84;;;9.57;53.00
78667;BME280;67983;59.830;30.198;2023-04-06T09:28:01;102907.13;;;9.67;52.44
78667;BME280;67983;59.830;30.198;2023-04-06T09:30:29;102904.25;;;9.74;52.72
78667;BME280;67983;59.830;30.198;2023-04-06T09:32:58;102906.72;;;9.82;52.42
78667;BME280;67983;59.830;30.198;2023-04-06T09:35:25;102898.53;;;9.89;52.11
78667;BME280;67983;59.830;30.198;2023-04-06T09:37:53;102906.19;;;10.00;51.64
78667;BME280;67983;59.830;30.198;2023-04-06T09:40:23;102906.81;;;10.08;51.54
78667;BME280;67983;59.830;30.198;2023-04-06T09:42:53;102904.97;;;10.12;51.46
78667;BME280;67983;59.830;30.198;2023-04-06T09:45:25;102906.81;;;10.08;51.20
78667;BME280;67983;59.830;30.198;2023-04-06T09:47:55;102906.91;;;10.05;51.33
78667;BME280;67983;59.830;30.198;2023-04-06T09:50:24;102905.13;;;10.06;51.11
78667;BME280;67983;59.830;30.198;2023-04-06T09:52:54;102915.91;;;10.00;50.87
78667;BME280;67983;59.830;30.198;2023-04-06T09:55:30;102901.88;;;9.96;51.27
78667;BME280;67983;59.830;30.198;2023-04-06T09:58:04;102914.38;;;9.91;51.22
78667;BME280;67983;59.830;30.198;2023-04-06T10:00:42;102903.81;;;9.89;51.31
78667;BME280;67983;59.830;30.198;2023-04-06T10:03:16;102909.00;;;9.94;51.02
78667;BME280;67983;59.830;30.198;2023-04-06T10:05:51;102907.09;;;9.99;51.09
78667;BME280;67983;59.830;30.198;2023-04-06T10:08:22;102909.59;;;10.04;50.85
78667;BME280;67983;59.830;30.198;2023-04-06T10:10:51;102916.44;;;10.12;50.81
78667;BME280;67983;59.830;30.198;2023-04-06T10:13:23;102911.75;;;10.22;50.92
78667;BME280;67983;59.830;30.198;2023-04-06T10:16:16;102913.19;;;10.34;50.81
78667;BME280;67983;59.830;30.198;2023-04-06T10:18:47;102917.38;;;10.41;51.04
78667;BME280;67983;59.830;30.198;2023-04-06T10:21:21;102917.09;;;10.50;50.25
78667;BME280;67983;59.830;30.198;2023-04-06T10:23:52;102923.25;;;10.52;49.81
78667;BME280;67983;59.830;30.198;2023-04-06T10:26:21;102917.25;;;10.45;49.76
78667;BME280;67983;59.830;30.198;2023-04-06T10:28:50;102919.75;;;10.50;50.04
78667;BME280;67983;59.830;30.198;2023-04-06T10:31:24;102917.06;;;10.52;49.73
78667;BME280;67983;59.830;30.198;2023-04-06T10:33:56;102915.22;;;10.54;49.69
78667;BME280;67983;59.830;30.198;2023-04-06T10:36:24;102912.25;;;10.64;49.53
78667;BME280;67983;59.830;30.198;2023-04-06T10:38:56;102930.63;;;10.70;49.29
78667;BME280;67983;59.830;30.198;2023-04-06T10:41:32;102921.28;;;10.59;48.92
78667;BME280;67983;59.830;30.198;2023-04-06T10:44:02;102922.31;;;10.53;49.36
78667;BME280;67983;59.830;30.198;2023-04-06T10:46:31;102920.47;;;10.55;49.40
78667;BME280;67983;59.830;30.198;2023-04-06T10:49:09;102922.31;;;10.53;50.63
78667;BME280;67983;59.830;30.198;2023-04-06T10:51:39;102923.13;;;10.55;50.66
78667;BME280;67983;59.830;30.198;2023-04-06T10:54:06;102918.69;;;10.56;51.10
78667;BME280;67983;59.830;30.198;2023-04-06T10:56:37;102921.22;;;10.60;51.41
78667;BME280;67983;59.830;30.198;2023-04-06T10:59:05;102918.53;;;10.62;51.31
78667;BME280;67983;59.830;30.198;2023-04-06T11:01:33;102919.94;;;10.73;51.19
78667;BME280;67983;59.830;30.198;2023-04-06T11:04:01;102917.94;;;10.80;50.63
78667;BME280;67983;59.830;30.198;2023-04-06T11:06:30;102917.72;;;10.88;50.42
78667;BME280;67983;59.830;30.198;2023-04-06T11:08:58;102917.34;;;10.98;50.54
78667;BME280;67983;59.830;30.198;2023-04-06T11:11:26;102916.25;;;11.05;50.11
78667;BME280;67983;59.830;30.198;2023-04-06T11:13:56;102913.84;;;11.24;49.28
78667;BME280;67983;59.830;30.198;2023-04-06T11:16:26;102911.47;;;11.42;48.77
78667;BME280;67983;59.830;30.198;2023-04-06T11:18:54;102909.44;;;11.50;48.65
78667;BME280;67983;59.830;30.198;2023-04-06T11:21:33;102908.72;;;11.70;48.36
78667;BME280;67983;59.830;30.198;2023-04-06T11:24:10;102904.31;;;11.93;47.61
78667;BME280;67983;59.830;30.198;2023-04-06T11:26:44;102907.28;;;12.09;47.01
78667;BME280;67983;59.830;30.198;2023-04-06T11:29:12;102903.75;;;12.32;46.61
78667;BME280;67983;59.830;30.198;2023-04-06T11:31:41;102901.47;;;13.32;45.92
78667;BME280;67983;59.830;30.198;2023-04-06T11:34:11;102899.47;;;15.10;42.92
78667;BME280;67983;59.830;30.198;2023-04-06T11:36:41;102898.28;;;16.96;40.38
78667;BME280;67983;59.830;30.198;2023-04-06T11:39:09;102902.06;;;18.80;38.11
78667;BME280;67983;59.830;30.198;2023-04-06T11:41:38;102905.34;;;20.40;36.37
78667;BME280;67983;59.830;30.198;2023-04-06T11:44:06;102900.56;;;21.74;34.61
78667;BME280;67983;59.830;30.198;2023-04-06T11:46:33;102898.97;;;23.04;31.88
78667;BME280;67983;59.830;30.198;2023-04-06T11:49:05;102903.59;;;24.27;30.05
78667;BME280;67983;59.830;30.198;2023-04-06T11:51:35;102904.03;;;25.40;29.33
78667;BME280;67983;59.830;30.198;2023-04-06T11:54:07;102901.91;;;26.28;27.05
78667;BME280;67983;59.830;30.198;2023-04-06T11:56:34;102898.63;;;26.97;25.35
78667;BME280;67983;59.830;30.198;2023-04-06T11:59:01;102900.94;;;27.71;24.92
78667;BME280;67983;59.830;30.198;2023-04-06T12:01:29;102898.25;;;28.47;23.37
78667;BME280;67983;59.830;30.198;2023-04-06T12:04:29;102898.59;;;29.11;23.07
78667;BME280;67983;59.830;30.198;2023-04-06T12:06:57;102896.47;;;29.70;21.82
78667;BME280;67983;59.830;30.198;2023-04-06T12:09:28;102893.44;;;30.20;21.14
78667;BME280;67983;59.830;30.198;2023-04-06T12:11:56;102894.16;;;30.76;20.29
78667;BME280;67983;59.830;30.198;2023-04-06T12:14:24;102895.09;;;31.14;20.22
78667;BME280;67983;59.830;30.198;2023-04-06T12:16:51;102889.88;;;31.42;20.00
78667;BME280;67983;59.830;30.198;2023-04-06T12:19:20;102885.41;;;31.79;18.93
78667;BME280;67983;59.830;30.198;2023-04-06T12:21:52;102882.38;;;32.03;19.17
78667;BME280;67983;59.830;30.198;2023-04-06T12:24:19;102878.81;;;32.24;18.79
78667;BME280;67983;59.830;30.198;2023-04-06T12:26:51;102878.25;;;32.14;17.85
78667;BME280;67983;59.830;30.198;2023-04-06T12:29:24;102875.00;;;31.89;18.34
78667;BME280;67983;59.830;30.198;2023-04-06T12:31:52;102878.84;;;31.95;18.23
78667;BME280;67983;59.830;30.198;2023-04-06T12:34:19;102879.25;;;31.92;17.77
78667;BME280;67983;59.830;30.198;2023-04-06T12:36:48;102870.03;;;31.99;17.74
78667;BME280;67983;59.830;30.198;2023-04-06T12:39:18;102861.47;;;32.24;17.27
78667;BME280;67983;59.830;30.198;2023-04-06T12:41:46;102862.31;;;32.39;17.13
78667;BME280;67983;59.830;30.198;2023-04-06T12:44:14;102854.56;;;32.64;16.85
78667;BME280;67983;59.830;30.198;2023-04-06T12:46:41;102852.97;;;32.55;16.86
78667;BME280;67983;59.830;30.198;2023-04-06T12:49:08;102846.81;;;32.17;16.94
78667;BME280;67983;59.830;30.198;2023-04-06T12:51:35;102848.34;;;31.60;16.76
78667;BME280;67983;59.830;30.198;2023-04-06T12:54:03;102845.97;;;31.05;16.78
78667;BME280;67983;59.830;30.198;2023-04-06T12:56:59;102846.00;;;30.82;16.83
78667;BME280;67983;59.830;30.198;2023-04-06T12:59:27;102837.34;;;30.39;17.45
78667;BME280;67983;59.830;30.198;2023-04-06T13:02:03;102831.88;;;30.08;17.75
78667;BME280;67983;59.830;30.198;2023-04-06T13:04:32;102829.03;;;29.85;17.78
78667;BME280;67983;59.830;30.198;2023-04-06T13:07:00;102830.34;;;29.34;17.43